sensor_id;sensor_type;location;lat;lon;timestamp;pressure;altitude;pressure_sealevel;temperature;humidity
72961;BME280;61141;46.204;19.774;2023-05-10T00:01:58;100687.87;;;11.32;78.49
72961;BME280;61141;46.204;19.774;2023-05-10T00:05:01;100683.12;;;11.29;78.80
72961;BME280;61141;46.204;19.774;2023-05-10T00:08:04;100680.25;;;11.21;78.92
72961;BME280;61141;46.204;19.774;2023-05-10T00:11:07;100679.41;;;11.17;78.97
72961;BME280;61141;46.204;19.774;2023-05-10T00:14:09;100670.69;;;11.12;79.40
72961;BME280;61141;46.204;19.774;2023-05-10T00:17:12;100661.16;;;11.06;79.51
72961;BME280;61141;46.204;19.774;2023-05-10T00:20:15;100660.25;;;10.98;79.88
72961;BME280;61141;46.204;19.774;2023-05-10T00:23:19;100669.28;;;10.99;80.17
72961;BME280;61141;46.204;19.774;2023-05-10T00:26:21;100665.75;;;10.98;80.18
72961;BME280;61141;46.204;19.774;2023-05-10T00:29:25;100654.28;;;10.93;80.58
72961;BME280;61141;46.204;19.774;2023-05-10T00:32:28;100655.44;;;10.92;80.79
72961;BME280;61141;46.204;19.774;2023-05-10T00:35:31;100648.16;;;10.80;81.29
72961;BME280;61141;46.204;19.774;2023-05-10T00:38:34;100646.13;;;10.77;81.39
72961;BME280;61141;46.204;19.774;2023-05-10T00:41:37;100642.97;;;10.75;81.56
72961;BME280;61141;46.204;19.774;2023-05-10T00:44:40;100644.16;;;10.74;81.71
72961;BME280;61141;46.204;19.774;2023-05-10T00:47:44;100647.97;;;10.70;82.08
72961;BME280;61141;46.204;19.774;2023-05-10T00:50:47;100639.41;;;10.71;82.23
72961;BME280;61141;46.204;19.774;2023-05-10T00:53:50;100638.19;;;10.69;82.26
72961;BME280;61141;46.204;19.774;2023-05-10T00:56:54;100646.16;;;10.58;82.55
72961;BME280;61141;46.204;19.774;2023-05-10T00:59:57;100642.50;;;10.31;83.28
72961;BME280;61141;46.204;19.774;2023-05-10T01:03:00;100641.41;;;10.17;84.02
72961;BME280;61141;46.204;19.774;2023-05-10T01:06:04;100636.31;;;10.15;84.06
72961;BME280;61141;46.204;19.774;2023-05-10T01:09:07;100634.91;;;10.25;84.21
72961;BME280;61141;46.204;19.774;2023-05-10T01:12:10;100624.97;;;10.17;84.48
72961;BME280;61141;46.204;19.774;2023-05-10T01:15:14;100623.63;;;10.26;84.36
72961;BME280;61141;46.204;19.774;2023-05-10T01:18:20;100622.75;;;10.22;84.66
72961;BME280;61141;46.204;19.774;2023-05-10T01:21:45;100626.56;;;10.18;84.22
72961;BME280;61141;46.204;19.774;2023-05-10T01:34:59;100626.22;;;9.84;85.78
72961;BME280;61141;46.204;19.774;2023-05-10T01:41:40;100616.69;;;9.78;86.20
72961;BME280;61141;46.204;19.774;2023-05-10T01:45:07;100612.91;;;9.67;86.42
72961;BME280;61141;46.204;19.774;2023-05-10T01:48:15;100609.31;;;9.63;86.75
72961;BME280;61141;46.204;19.774;2023-05-10T01:51:23;100602.44;;;9.69;86.69
72961;BME280;61141;46.204;19.774;2023-05-10T01:54:28;100601.28;;;9.70;86.99
72961;BME280;61141;46.204;19.774;2023-05-10T01:57:39;100596.28;;;9.57;87.30
72961;BME280;61141;46.204;19.774;2023-05-10T02:00:45;100591.50;;;9.54;87.67
72961;BME280;61141;46.204;19.774;2023-05-10T02:03:50;100587.75;;;9.42;87.92
72961;BME280;61141;46.204;19.774;2023-05-10T02:06:54;100590.13;;;9.28;88.57
72961;BME280;61141;46.204;19.774;2023-05-10T02:09:58;100583.69;;;9.36;88.29
72961;BME280;61141;46.204;19.774;2023-05-10T02:13:02;100583.00;;;9.24;88.77
72961;BME280;61141;46.204;19.774;2023-05-10T02:16:07;100575.50;;;9.21;89.18
72961;BME280;61141;46.204;19.774;2023-05-10T02:19:11;100568.66;;;9.11;89.89
72961;BME280;61141;46.204;19.774;2023-05-10T02:22:16;100552.44;;;9.03;89.82
72961;BME280;61141;46.204;19.774;2023-05-10T02:25:20;100564.59;;;9.05;89.93
72961;BME280;61141;46.204;19.774;2023-05-10T02:28:24;100566.63;;;9.08;90.15
72961;BME280;61141;46.204;19.774;2023-05-10T02:31:27;100573.66;;;9.09;90.04
72961;BME280;61141;46.204;19.774;2023-05-10T02:34:31;100576.66;;;9.20;89.57
72961;BME280;61141;46.204;19.774;2023-05-10T02:37:36;100578.94;;;9.18;89.65
72961;BME280;61141;46.204;19.774;2023-05-10T02:40:40;100574.12;;;9.11;89.96
72961;BME280;61141;46.204;19.774;2023-05-10T02:43:46;100582.56;;;9.22;89.64
72961;BME280;61141;46.204;19.774;2023-05-10T02:46:49;100572.87;;;9.24;89.59
72961;BME280;61141;46.204;19.774;2023-05-10T02:49:52;100583.97;;;9.16;89.51
72961;BME280;61141;46.204;19.774;2023-05-10T02:53:00;100580.56;;;9.19;89.48
72961;BME280;61141;46.204;19.774;2023-05-10T02:56:12;100567.75;;;9.07;89.36
72961;BME280;61141;46.204;19.774;2023-05-10T02:59:15;100579.84;;;8.91;89.80
72961;BME280;61141;46.204;19.774;2023-05-10T03:02:20;100579.47;;;8.76;90.49
72961;BME280;61141;46.204;19.774;2023-05-10T03:05:22;100583.88;;;8.65;91.29
72961;BME280;61141;46.204;19.774;2023-05-10T03:08:26;100581.56;;;8.67;91.35
72961;BME280;61141;46.204;19.774;2023-05-10T03:15:03;100587.38;;;8.50;91.74
72961;BME280;61141;46.204;19.774;2023-05-10T03:18:13;100584.81;;;8.57;91.67
72961;BME280;61141;46.204;19.774;2023-05-10T03:21:18;100585.09;;;8.52;91.97
72961;BME280;61141;46.204;19.774;2023-05-10T03:24:25;100588.69;;;8.56;92.01
72961;BME280;61141;46.204;19.774;2023-05-10T03:27:31;100586.84;;;8.60;91.87
72961;BME280;61141;46.204;19.774;2023-05-10T03:30:35;100585.47;;;8.66;91.77
72961;BME280;61141;46.204;19.774;2023-05-10T03:33:50;100572.84;;;8.62;92.07
72961;BME280;61141;46.204;19.774;2023-05-10T03:36:55;100580.00;;;8.66;91.96
72961;BME280;61141;46.204;19.774;2023-05-10T03:39:59;100582.81;;;8.70;92.02
72961;BME280;61141;46.204;19.774;2023-05-10T03:43:02;100574.22;;;8.83;91.45
72961;BME280;61141;46.204;19.774;2023-05-10T03:46:05;100579.03;;;8.90;91.13
72961;BME280;61141;46.204;19.774;2023-05-10T03:49:08;100559.22;;;8.77;91.23
72961;BME280;61141;46.204;19.774;2023-05-10T03:52:11;100577.72;;;9.00;91.05
72961;BME280;61141;46.204;19.774;2023-05-10T03:55:15;100569.81;;;8.95;91.04
72961;BME280;61141;46.204;19.774;2023-05-10T03:58:19;100575.09;;;9.19;90.50
72961;BME280;61141;46.204;19.774;2023-05-10T04:01:21;100568.25;;;9.28;90.06
72961;BME280;61141;46.204;19.774;2023-05-10T04:04:24;100580.72;;;9.26;90.21
72961;BME280;61141;46.204;19.774;2023-05-10T04:07:27;100581.75;;;9.37;89.76
72961;BME280;61141;46.204;19.774;2023-05-10T04:10:31;100583.88;;;9.28;90.18
72961;BME280;61141;46.204;19.774;2023-05-10T04:13:33;100579.28;;;9.32;90.12
72961;BME280;61141;46.204;19.774;2023-05-10T04:16:37;100580.88;;;9.33;90.37
72961;BME280;61141;46.204;19.774;2023-05-10T04:19:40;100586.56;;;9.59;89.75
72961;BME280;61141;46.204;19.774;2023-05-10T04:22:42;100585.72;;;9.55;89.74
72961;BME280;61141;46.204;19.774;2023-05-10T04:25:45;100585.16;;;9.84;88.90
72961;BME280;61141;46.204;19.774;2023-05-10T04:28:48;100580.09;;;10.02;88.20
72961;BME280;61141;46.204;19.774;2023-05-10T04:31:51;100590.38;;;10.09;87.94
72961;BME280;61141;46.204;19.774;2023-05-10T04:34:54;100583.78;;;10.29;87.05
72961;BME280;61141;46.204;19.774;2023-05-10T04:37:56;100583.41;;;10.30;86.63
72961;BME280;61141;46.204;19.774;2023-05-10T04:41:07;100579.94;;;10.33;86.74
72961;BME280;61141;46.204;19.774;2023-05-10T04:44:10;100587.59;;;10.66;85.74
72961;BME280;61141;46.204;19.774;2023-05-10T04:47:13;100587.34;;;10.71;85.70
72961;BME280;61141;46.204;19.774;2023-05-10T04:50:16;100587.09;;;11.02;84.35
72961;BME280;61141;46.204;19.774;2023-05-10T04:53:20;100590.78;;;11.13;83.80
72961;BME280;61141;46.204;19.774;2023-05-10T04:56:23;100582.09;;;11.57;82.94
72961;BME280;61141;46.204;19.774;2023-05-10T04:59:26;100579.75;;;11.85;81.20
72961;BME280;61141;46.204;19.774;2023-05-10T05:02:29;100579.34;;;11.83;80.95
72961;BME280;61141;46.204;19.774;2023-05-10T05:05:32;100583.34;;;11.89;80.75
72961;BME280;61141;46.204;19.774;2023-05-10T05:08:35;100580.00;;;12.03;79.83
72961;BME280;61141;46.204;19.774;2023-05-10T05:11:38;100578.12;;;12.10;80.05
72961;BME280;61141;46.204;19.774;2023-05-10T05:14:40;100584.94;;;12.23;79.53
72961;BME280;61141;46.204;19.774;2023-05-10T05:17:43;100582.72;;;12.32;79.61
72961;BME280;61141;46.204;19.774;2023-05-10T05:20:47;100584.12;;;12.53;79.06
72961;BME280;61141;46.204;19.774;2023-05-10T05:23:50;100577.03;;;12.52;78.93
72961;BME280;61141;46.204;19.774;2023-05-10T05:26:52;100588.72;;;12.82;77.36
72961;BME280;61141;46.204;19.774;2023-05-10T05:29:56;100591.66;;;13.00;76.16
72961;BME280;61141;46.204;19.774;2023-05-10T05:32:59;100572.22;;;12.78;76.39
72961;BME280;61141;46.204;19.774;2023-05-10T05:36:03;100592.16;;;13.09;75.18
72961;BME280;61141;46.204;19.774;2023-05-10T05:39:06;100588.41;;;12.90;75.83
72961;BME280;61141;46.204;19.774;2023-05-10T05:42:10;100587.62;;;12.90;75.54
72961;BME280;61141;46.204;19.774;2023-05-10T05:45:17;100591.78;;;13.10;74.89
72961;BME280;61141;46.204;19.774;2023-05-10T05:48:20;100596.31;;;12.92;75.65
72961;BME280;61141;46.204;19.774;2023-05-10T05:51:23;100592.94;;;13.09;74.90
72961;BME280;61141;46.204;19.774;2023-05-10T05:54:27;100595.00;;;13.19;74.81
72961;BME280;61141;46.204;19.774;2023-05-10T05:57:30;100599.06;;;13.36;73.76
72961;BME280;61141;46.204;19.774;2023-05-10T06:00:33;100582.41;;;13.18;74.06
72961;BME280;61141;46.204;19.774;2023-05-10T06:03:36;100592.97;;;13.67;72.61
72961;BME280;61141;46.204;19.774;2023-05-10T06:06:39;100600.97;;;13.90;70.80
72961;BME280;61141;46.204;19.774;2023-05-10T06:09:42;100601.03;;;14.00;70.78
72961;BME280;61141;46.204;19.774;2023-05-10T06:12:44;100606.63;;;14.14;69.35
72961;BME280;61141;46.204;19.774;2023-05-10T06:15:48;100601.22;;;14.32;68.46
72961;BME280;61141;46.204;19.774;2023-05-10T06:18:50;100603.22;;;14.42;68.23
72961;BME280;61141;46.204;19.774;2023-05-10T06:21:53;100603.72;;;14.83;67.63
72961;BME280;61141;46.204;19.774;2023-05-10T06:24:56;100607.28;;;14.91;66.62
72961;BME280;61141;46.204;19.774;2023-05-10T06:27:59;100610.81;;;14.81;66.86
72961;BME280;61141;46.204;19.774;2023-05-10T06:31:02;100610.69;;;14.38;67.95
72961;BME280;61141;46.204;19.774;2023-05-10T06:34:05;100613.94;;;14.76;66.01
72961;BME280;61141;46.204;19.774;2023-05-10T06:37:10;100621.47;;;14.93;65.54
72961;BME280;61141;46.204;19.774;2023-05-10T06:40:13;100618.31;;;14.91;66.10
72961;BME280;61141;46.204;19.774;2023-05-10T06:43:16;100617.94;;;15.17;65.24
72961;BME280;61141;46.204;19.774;2023-05-10T06:46:19;100621.50;;;15.21;65.45
72961;BME280;61141;46.204;19.774;2023-05-10T06:49:22;100610.06;;;15.01;65.81
72961;BME280;61141;46.204;19.774;2023-05-10T06:52:24;100616.37;;;15.23;65.65
72961;BME280;61141;46.204;19.774;2023-05-10T06:55:49;100615.59;;;15.15;65.73
72961;BME280;61141;46.204;19.774;2023-05-10T06:58:51;100619.16;;;15.41;63.88
72961;BME280;61141;46.204;19.774;2023-05-10T07:01:55;100607.72;;;15.60;63.50
72961;BME280;61141;46.204;19.774;2023-05-10T07:04:58;100610.84;;;15.09;64.59
72961;BME280;61141;46.204;19.774;2023-05-10T07:08:04;100602.19;;;15.35;63.64
72961;BME280;61141;46.204;19.774;2023-05-10T07:11:07;100599.81;;;15.58;63.51
72961;BME280;61141;46.204;19.774;2023-05-10T07:14:10;100603.78;;;15.57;63.50
72961;BME280;61141;46.204;19.774;2023-05-10T07:17:13;100610.88;;;15.62;62.65
72961;BME280;61141;46.204;19.774;2023-05-10T07:20:15;100608.41;;;15.99;60.97
72961;BME280;61141;46.204;19.774;2023-05-10T07:23:18;100594.97;;;16.05;59.24
72961;BME280;61141;46.204;19.774;2023-05-10T07:26:21;100598.25;;;15.57;61.30
72961;BME280;61141;46.204;19.774;2023-05-10T07:29:25;100588.72;;;15.86;61.15
72961;BME280;61141;46.204;19.774;2023-05-10T07:32:27;100597.72;;;16.15;60.02
72961;BME280;61141;46.204;19.774;2023-05-10T07:35:30;100599.41;;;15.63;60.30
72961;BME280;61141;46.204;19.774;2023-05-10T07:38:33;100594.50;;;16.27;59.58
72961;BME280;61141;46.204;19.774;2023-05-10T07:41:36;100601.12;;;16.44;59.61
72961;BME280;61141;46.204;19.774;2023-05-10T07:44:39;100597.06;;;16.73;57.98
72961;BME280;61141;46.204;19.774;2023-05-10T07:47:42;100593.44;;;16.83;57.44
72961;BME280;61141;46.204;19.774;2023-05-10T07:50:45;100594.44;;;16.41;57.44
72961;BME280;61141;46.204;19.774;2023-05-10T07:53:48;100604.78;;;17.03;56.11
72961;BME280;61141;46.204;19.774;2023-05-10T07:56:51;100593.81;;;16.82;56.29
72961;BME280;61141;46.204;19.774;2023-05-10T07:59:54;100594.78;;;17.13;55.31
72961;BME280;61141;46.204;19.774;2023-05-10T08:02:57;100590.41;;;17.19;55.32
72961;BME280;61141;46.204;19.774;2023-05-10T08:06:00;100594.50;;;17.00;54.93
72961;BME280;61141;46.204;19.774;2023-05-10T08:09:03;100605.75;;;16.75;54.19
72961;BME280;61141;46.204;19.774;2023-05-10T08:12:06;100595.06;;;16.77;55.13
72961;BME280;61141;46.204;19.774;2023-05-10T08:15:09;100598.38;;;17.10;55.67
72961;BME280;61141;46.204;19.774;2023-05-10T08:18:12;100599.84;;;17.28;55.09
72961;BME280;61141;46.204;19.774;2023-05-10T08:21:15;100587.59;;;17.70;53.47
72961;BME280;61141;46.204;19.774;2023-05-10T08:24:18;100598.91;;;18.20;53.20
72961;BME280;61141;46.204;19.774;2023-05-10T08:27:21;100593.16;;;18.38;51.98
72961;BME280;61141;46.204;19.774;2023-05-10T08:30:24;100587.81;;;18.20;51.56
72961;BME280;61141;46.204;19.774;2023-05-10T08:33:27;100590.38;;;18.38;50.66
72961;BME280;61141;46.204;19.774;2023-05-10T08:36:29;100572.44;;;18.46;51.35
72961;BME280;61141;46.204;19.774;2023-05-10T08:39:35;100594.13;;;18.24;51.00
72961;BME280;61141;46.204;19.774;2023-05-10T08:42:40;100575.38;;;18.32;51.02
72961;BME280;61141;46.204;19.774;2023-05-10T08:45:45;100583.91;;;17.84;52.27
72961;BME280;61141;46.204;19.774;2023-05-10T08:48:50;100588.63;;;17.42;53.96
72961;BME280;61141;46.204;19.774;2023-05-10T08:51:55;100582.25;;;18.20;52.75
72961;BME280;61141;46.204;19.774;2023-05-10T08:54:58;100580.06;;;18.95;50.08
72961;BME280;61141;46.204;19.774;2023-05-10T08:58:01;100584.06;;;18.94;49.14
72961;BME280;61141;46.204;19.774;2023-05-10T09:01:07;100578.09;;;18.39;51.09
72961;BME280;61141;46.204;19.774;2023-05-10T09:04:12;100559.22;;;18.27;51.10
72961;BME280;61141;46.204;19.774;2023-05-10T09:07:16;100570.50;;;18.09;51.66
72961;BME280;61141;46.204;19.774;2023-05-10T09:10:20;100568.06;;;18.45;51.47
72961;BME280;61141;46.204;19.774;2023-05-10T09:13:24;100563.47;;;19.61;49.28
72961;BME280;61141;46.204;19.774;2023-05-10T09:16:27;100559.47;;;19.85;47.66
72961;BME280;61141;46.204;19.774;2023-05-10T09:19:30;100564.44;;;19.74;46.47
72961;BME280;61141;46.204;19.774;2023-05-10T09:22:34;100577.31;;;19.65;46.48
72961;BME280;61141;46.204;19.774;2023-05-10T09:25:38;100571.06;;;20.00;46.20
72961;BME280;61141;46.204;19.774;2023-05-10T09:28:53;100557.66;;;19.75;46.40
72961;BME280;61141;46.204;19.774;2023-05-10T09:31:57;100564.28;;;19.62;46.91
72961;BME280;61141;46.204;19.774;2023-05-10T09:35:12;100558.47;;;20.15;46.14
72961;BME280;61141;46.204;19.774;2023-05-10T09:38:16;100557.81;;;19.68;47.08
72961;BME280;61141;46.204;19.774;2023-05-10T09:41:20;100565.81;;;20.25;46.04
72961;BME280;61141;46.204;19.774;2023-05-10T09:44:25;100554.31;;;19.84;46.17
72961;BME280;61141;46.204;19.774;2023-05-10T09:47:28;100548.13;;;19.76;46.80
72961;BME280;61141;46.204;19.774;2023-05-10T09:50:31;100541.44;;;19.51;46.83
72961;BME280;61141;46.204;19.774;2023-05-10T09:53:34;100548.78;;;19.41;46.93
72961;BME280;61141;46.204;19.774;2023-05-10T09:56:37;100553.72;;;19.30;47.65
72961;BME280;61141;46.204;19.774;2023-05-10T09:59:44;100553.62;;;19.33;47.43
72961;BME280;61141;46.204;19.774;2023-05-10T10:02:58;100549.66;;;19.77;46.36
72961;BME280;61141;46.204;19.774;2023-05-10T10:06:02;100546.91;;;19.58;46.84
72961;BME280;61141;46.204;19.774;2023-05-10T10:09:05;100531.56;;;19.50;46.87
72961;BME280;61141;46.204;19.774;2023-05-10T10:12:09;100536.84;;;19.83;46.46
72961;BME280;61141;46.204;19.774;2023-05-10T10:15:11;100548.91;;;19.30;47.88
72961;BME280;61141;46.204;19.774;2023-05-10T10:18:18;100536.16;;;18.87;48.49
72961;BME280;61141;46.204;19.774;2023-05-10T10:21:26;100546.72;;;19.22;48.04
72961;BME280;61141;46.204;19.774;2023-05-10T10:24:29;100540.47;;;19.37;47.56
72961;BME280;61141;46.204;19.774;2023-05-10T10:30:54;100540.19;;;19.75;47.46
72961;BME280;61141;46.204;19.774;2023-05-10T10:34:26;100532.28;;;20.68;45.32
72961;BME280;61141;46.204;19.774;2023-05-10T10:37:44;100523.06;;;20.35;45.54
72961;BME280;61141;46.204;19.774;2023-05-10T10:40:47;100522.38;;;19.92;46.46
72961;BME280;61141;46.204;19.774;2023-05-10T10:47:29;100522.25;;;19.79;45.76
72961;BME280;61141;46.204;19.774;2023-05-10T10:50:43;100519.09;;;19.97;46.00
72961;BME280;61141;46.204;19.774;2023-05-10T10:53:47;100516.41;;;20.49;45.43
72961;BME280;61141;46.204;19.774;2023-05-10T10:57:10;100508.69;;;20.89;44.00
72961;BME280;61141;46.204;19.774;2023-05-10T11:03:24;100495.91;;;20.75;43.22
72961;BME280;61141;46.204;19.774;2023-05-10T11:06:31;100503.81;;;20.77;43.26
72961;BME280;61141;46.204;19.774;2023-05-10T11:09:39;100481.37;;;20.84;42.78
72961;BME280;61141;46.204;19.774;2023-05-10T11:13:01;100476.84;;;21.51;41.44
72961;BME280;61141;46.204;19.774;2023-05-10T11:16:24;100481.13;;;21.68;40.07
72961;BME280;61141;46.204;19.774;2023-05-10T11:19:28;100478.31;;;21.55;40.70
72961;BME280;61141;46.204;19.774;2023-05-10T11:22:49;100480.19;;;21.87;39.63
72961;BME280;61141;46.204;19.774;2023-05-10T11:25:53;100462.53;;;22.19;38.92
72961;BME280;61141;46.204;19.774;2023-05-10T11:28:57;100472.47;;;22.58;39.04
72961;BME280;61141;46.204;19.774;2023-05-10T11:32:05;100470.66;;;22.26;38.53
72961;BME280;61141;46.204;19.774;2023-05-10T11:35:11;100468.69;;;22.64;38.02
72961;BME280;61141;46.204;19.774;2023-05-10T11:38:14;100477.69;;;21.77;39.64
72961;BME280;61141;46.204;19.774;2023-05-10T11:41:18;100467.16;;;20.94;41.13
72961;BME280;61141;46.204;19.774;2023-05-10T11:44:29;100457.63;;;20.79;41.53
72961;BME280;61141;46.204;19.774;2023-05-10T11:47:32;100469.84;;;21.30;41.20
72961;BME280;61141;46.204;19.774;2023-05-10T11:50:35;100468.44;;;22.08;40.57
72961;BME280;61141;46.204;19.774;2023-05-10T11:53:38;100462.38;;;21.56;40.83
72961;BME280;61141;46.204;19.774;2023-05-10T11:56:41;100469.62;;;21.66;40.73
72961;BME280;61141;46.204;19.774;2023-05-10T11:59:44;100480.94;;;21.46;40.80
72961;BME280;61141;46.204;19.774;2023-05-10T12:02:48;100480.13;;;20.69;42.08
72961;BME280;61141;46.204;19.774;2023-05-10T12:05:51;100480.03;;;21.04;42.49
72961;BME280;61141;46.204;19.774;2023-05-10T12:08:54;100475.09;;;20.80;41.76
72961;BME280;61141;46.204;19.774;2023-05-10T12:11:58;100470.44;;;21.66;40.06
72961;BME280;61141;46.204;19.774;2023-05-10T12:15:02;100458.06;;;22.09;39.27
72961;BME280;61141;46.204;19.774;2023-05-10T12:18:08;100470.31;;;20.80;42.02
72961;BME280;61141;46.204;19.774;2023-05-10T12:21:12;100479.19;;;21.52;40.71
72961;BME280;61141;46.204;19.774;2023-05-10T12:24:15;100465.59;;;21.96;39.42
72961;BME280;61141;46.204;19.774;2023-05-10T12:27:20;100467.66;;;22.84;38.36
72961;BME280;61141;46.204;19.774;2023-05-10T12:30:28;100455.47;;;22.40;39.71
72961;BME280;61141;46.204;19.774;2023-05-10T12:33:43;100447.00;;;22.43;39.09
72961;BME280;61141;46.204;19.774;2023-05-10T12:36:50;100451.78;;;21.92;39.58
72961;BME280;61141;46.204;19.774;2023-05-10T12:39:54;100450.09;;;22.45;38.86
72961;BME280;61141;46.204;19.774;2023-05-10T12:42:58;100454.81;;;22.48;37.17
72961;BME280;61141;46.204;19.774;2023-05-10T12:46:15;100439.47;;;23.25;37.36
72961;BME280;61141;46.204;19.774;2023-05-10T12:49:19;100435.50;;;23.35;37.52
72961;BME280;61141;46.204;19.774;2023-05-10T12:52:22;100428.69;;;23.36;37.69
72961;BME280;61141;46.204;19.774;2023-05-10T12:55:25;100433.03;;;22.18;38.91
72961;BME280;61141;46.204;19.774;2023-05-10T12:58:27;100426.69;;;22.17;39.17
72961;BME280;61141;46.204;19.774;2023-05-10T13:01:37;100431.94;;;22.53;38.33
72961;BME280;61141;46.204;19.774;2023-05-10T13:04:41;100418.03;;;23.22;36.17
72961;BME280;61141;46.204;19.774;2023-05-10T13:07:44;100417.25;;;23.09;36.63
72961;BME280;61141;46.204;19.774;2023-05-10T13:10:47;100398.62;;;22.71;37.54
72961;BME280;61141;46.204;19.774;2023-05-10T13:13:51;100400.16;;;22.85;38.17
72961;BME280;61141;46.204;19.774;2023-05-10T13:16:53;100396.81;;;21.77;39.66
72961;BME280;61141;46.204;19.774;2023-05-10T13:19:56;100405.25;;;21.60;40.30
72961;BME280;61141;46.204;19.774;2023-05-10T13:22:59;100396.25;;;21.56;40.47
72961;BME280;61141;46.204;19.774;2023-05-10T13:26:02;100389.63;;;21.92;39.96
72961;BME280;61141;46.204;19.774;2023-05-10T13:29:05;100378.34;;;22.33;38.65
72961;BME280;61141;46.204;19.774;2023-05-10T13:32:08;100374.66;;;22.36;38.12
72961;BME280;61141;46.204;19.774;2023-05-10T13:35:11;100367.09;;;23.05;36.48
72961;BME280;61141;46.204;19.774;2023-05-10T13:38:14;100373.34;;;23.31;35.41
72961;BME280;61141;46.204;19.774;2023-05-10T13:41:16;100377.00;;;22.85;36.41
72961;BME280;61141;46.204;19.774;2023-05-10T13:44:20;100362.13;;;22.53;38.27
72961;BME280;61141;46.204;19.774;2023-05-10T13:47:22;100364.72;;;21.31;39.88
72961;BME280;61141;46.204;19.774;2023-05-10T13:50:25;100367.94;;;21.71;39.00
72961;BME280;61141;46.204;19.774;2023-05-10T13:53:29;100363.63;;;21.95;38.79
72961;BME280;61141;46.204;19.774;2023-05-10T13:56:32;100353.84;;;22.37;38.49
72961;BME280;61141;46.204;19.774;2023-05-10T13:59:35;100354.69;;;22.25;38.79
72961;BME280;61141;46.204;19.774;2023-05-10T14:02:38;100352.47;;;21.95;39.51
72961;BME280;61141;46.204;19.774;2023-05-10T14:05:41;100352.84;;;21.55;38.93
72961;BME280;61141;46.204;19.774;2023-05-10T14:08:44;100358.56;;;21.23;39.30
72961;BME280;61141;46.204;19.774;2023-05-10T14:11:47;100368.38;;;21.15;39.42
72961;BME280;61141;46.204;19.774;2023-05-10T14:14:50;100360.34;;;21.17;39.48
72961;BME280;61141;46.204;19.774;2023-05-10T14:17:53;100361.22;;;21.14;39.41
72961;BME280;61141;46.204;19.774;2023-05-10T14:20:55;100356.53;;;21.11;39.86
72961;BME280;61141;46.204;19.774;2023-05-10T14:23:59;100353.75;;;21.78;38.60
72961;BME280;61141;46.204;19.774;2023-05-10T14:27:01;100347.19;;;21.84;38.66
72961;BME280;61141;46.204;19.774;2023-05-10T14:30:05;100346.69;;;21.48;38.86
72961;BME280;61141;46.204;19.774;2023-05-10T14:33:08;100357.22;;;21.15;39.42
72961;BME280;61141;46.204;19.774;2023-05-10T14:36:11;100351.44;;;21.22;38.42
72961;BME280;61141;46.204;19.774;2023-05-10T14:39:14;100349.37;;;21.10;38.58
72961;BME280;61141;46.204;19.774;2023-05-10T14:42:17;100345.41;;;20.95;39.33
72961;BME280;61141;46.204;19.774;2023-05-10T14:45:20;100348.97;;;20.18;40.11
72961;BME280;61141;46.204;19.774;2023-05-10T14:48:23;100340.44;;;20.41;40.43
72961;BME280;61141;46.204;19.774;2023-05-10T14:51:26;100333.66;;;20.59;40.25
72961;BME280;61141;46.204;19.774;2023-05-10T14:54:29;100343.06;;;20.48;40.49
72961;BME280;61141;46.204;19.774;2023-05-10T14:57:32;100341.84;;;20.49;39.99
72961;BME280;61141;46.204;19.774;2023-05-10T15:00:36;100349.31;;;20.36;40.77
72961;BME280;61141;46.204;19.774;2023-05-10T15:03:38;100338.00;;;20.27;40.58
72961;BME280;61141;46.204;19.774;2023-05-10T15:06:42;100337.41;;;20.36;39.87
72961;BME280;61141;46.204;19.774;2023-05-10T15:09:45;100339.97;;;20.75;39.55
72961;BME280;61141;46.204;19.774;2023-05-10T15:12:48;100335.56;;;20.62;40.03
72961;BME280;61141;46.204;19.774;2023-05-10T15:15:50;100344.06;;;20.71;39.54
72961;BME280;61141;46.204;19.774;2023-05-10T15:18:53;100337.31;;;21.42;37.98
72961;BME280;61141;46.204;19.774;2023-05-10T15:21:56;100334.72;;;21.22;38.08
72961;BME280;61141;46.204;19.774;2023-05-10T15:24:59;100339.38;;;20.96;38.75
72961;BME280;61141;46.204;19.774;2023-05-10T15:28:02;100343.44;;;20.79;39.35
72961;BME280;61141;46.204;19.774;2023-05-10T15:31:05;100340.09;;;20.56;39.66
72961;BME280;61141;46.204;19.774;2023-05-10T15:34:08;100339.78;;;20.37;40.61
72961;BME280;61141;46.204;19.774;2023-05-10T15:37:11;100336.47;;;20.42;40.55
72961;BME280;61141;46.204;19.774;2023-05-10T15:40:13;100334.19;;;20.21;41.12
72961;BME280;61141;46.204;19.774;2023-05-10T15:43:16;100334.03;;;20.28;41.62
72961;BME280;61141;46.204;19.774;2023-05-10T15:46:19;100333.69;;;20.42;41.16
72961;BME280;61141;46.204;19.774;2023-05-10T15:49:22;100337.59;;;20.29;41.42
72961;BME280;61141;46.204;19.774;2023-05-10T15:52:25;100332.53;;;20.24;41.09
72961;BME280;61141;46.204;19.774;2023-05-10T15:55:27;100334.25;;;20.18;41.45
72961;BME280;61141;46.204;19.774;2023-05-10T15:58:30;100338.50;;;20.06;41.09
72961;BME280;61141;46.204;19.774;2023-05-10T16:01:33;100326.19;;;20.23;40.26
72961;BME280;61141;46.204;19.774;2023-05-10T16:04:36;100334.94;;;20.22;40.46
72961;BME280;61141;46.204;19.774;2023-05-10T16:07:40;100330.53;;;20.57;40.03
72961;BME280;61141;46.204;19.774;2023-05-10T16:10:43;100329.75;;;20.24;40.93
72961;BME280;61141;46.204;19.774;2023-05-10T16:13:46;100326.66;;;20.38;41.15
72961;BME280;61141;46.204;19.774;2023-05-10T16:16:49;100329.06;;;20.36;41.50
72961;BME280;61141;46.204;19.774;2023-05-10T16:19:53;100339.66;;;20.25;41.97
72961;BME280;61141;46.204;19.774;2023-05-10T16:22:55;100326.78;;;19.99;42.50